This is the latest recevied weather packets stored in our database for station/object N3WMC. If no packets are shown the sender has not sent any weather packets the latest 10 day(s).
| Time | Temp. | Humidity | Pressure | Rain* | Wind** | Luminosity | Snow |
|---|---|---|---|---|---|---|---|
| 1787672465 | 23.33° C | 68% | 1021.1 hPa | 0 mm | - | 687 W/m² | - |
| 1787672164 | 22.78° C | 69% | 1020.8 hPa | 0 mm | - | 216 W/m² | - |
| 1787671859 | 22.78° C | 70% | 1020.7 hPa | 0 mm | - | 168 W/m² | - |
| 1787671555 | 23.33° C | 70% | 1020.7 hPa | 0 mm | - | 572 W/m² | - |
| 1787671250 | 22.78° C | 72% | 1020.7 hPa | 0 mm | - | 556 W/m² | - |
| 1787670945 | 22.78° C | 71% | 1020.8 hPa | 0 mm | - | 617 W/m² | - |
| 1787670640 | 22.78° C | 73% | 1020.8 hPa | 0 mm | - | 235 W/m² | - |
| 1787670334 | 22.22° C | 73% | 1020.9 hPa | 0 mm | - | 650 W/m² | - |
| 1787670029 | 22.22° C | 73% | 1020.8 hPa | 0 mm | - | 440 W/m² | - |
| 1787669724 | 22.22° C | 74% | 1021 hPa | 0 mm | - | 332 W/m² | - |
| 1787669418 | 22.22° C | 75% | 1020.9 hPa | 0 mm | - | 336 W/m² | - |
| 1787669114 | 21.67° C | 75% | 1020.9 hPa | 0 mm | - | 331 W/m² | - |
| 1787668809 | 21.67° C | 76% | 1020.8 hPa | 0 mm | - | 326 W/m² | - |
| 1787668506 | 21.67° C | 76% | 1021.1 hPa | 0 mm | - | 346 W/m² | - |
| 1787668201 | 21.11° C | 77% | 1020.9 hPa | 0 mm | - | 333 W/m² | - |
| 1787667896 | 21.11° C | 77% | 1020.8 hPa | 0 mm | - | 344 W/m² | - |
| 1787667591 | 21.11° C | 78% | 1020.9 hPa | 0 mm | - | 363 W/m² | - |
| 1787667287 | 21.67° C | 75% | 1020.8 hPa | 0 mm | - | 422 W/m² | - |
| 1787666986 | 21.11° C | 77% | 1020.8 hPa | 0 mm | - | 303 W/m² | - |
| 1787666682 | 20.56° C | 79% | 1020.9 hPa | 0 mm | - | 330 W/m² | - |
| 1787666382 | 20° C | 81% | 1020.8 hPa | 0 mm | - | 291 W/m² | - |
| 1787666078 | 20° C | 79% | 1020.9 hPa | 0 mm | - | 268 W/m² | - |
| 1787665773 | 20.56° C | 79% | 1020.6 hPa | 0 mm | - | 232 W/m² | - |
| 1787665468 | 20.56° C | 79% | 1020.6 hPa | 0 mm | - | 246 W/m² | - |
| 1787665168 | 20.56° C | 78% | 1020.6 hPa | 0 mm | - | 246 W/m² | - |
* Rain latest hour (hover to see other rain measurements)
** Current wind speed in m/s (hover to see current wind gust speed)